RYR8AC EGKK-EIDW
Flight info
| Callsign | RYR8AC |
|---|---|
| Flight time | 1h 8m |
| Altitude | 36000 |
| Route | NOVMA L620 NIBDA N14 OKSAW DCT BIBPE DCT OKTAD DCT MEDOG DCT KRAGY DCT PEMOB M17 VATRY |
| Aircraft | B738/M-SDE2E3FGHIRWXY/LB1 |
Departure
| Time | 2026-04-15 21:00 |
|---|---|
| Airport | London Gatwick Airport (EGKK) |
Arrival
| Time | 2026-04-15 22:08 |
|---|---|
| Airport | Dublin Airport (EIDW) |
| Time | Latitude | Longitude | Altitude | Speed | Heading |
|---|---|---|---|---|---|
| 2026-04-15 19:57 | 51.15502 | -0.16845 | 204 ft | 0 kts | 348° |
| 2026-04-15 20:50 | 51.15496 | -0.16843 | 204 ft | 3 kts | 348° |
| 2026-04-15 20:50 | 51.15477 | -0.16839 | 208 ft | 3 kts | 10° |
| 2026-04-15 20:50 | 51.15459 | -0.16850 | 208 ft | 3 kts | 41° |
| 2026-04-15 20:50 | 51.15448 | -0.16875 | 216 ft | 3 kts | 73° |
| 2026-04-15 20:51 | 51.15446 | -0.16886 | 213 ft | 0 kts | 79° |
| 2026-04-15 20:55 | 51.15447 | -0.16873 | 210 ft | 3 kts | 83° |
| 2026-04-15 20:56 | 51.15451 | -0.16824 | 207 ft | 8 kts | 80° |
| 2026-04-15 20:56 | 51.15435 | -0.16732 | 207 ft | 9 kts | 147° |
| 2026-04-15 20:56 | 51.15378 | -0.16708 | 209 ft | 8 kts | 167° |
| 2026-04-15 20:56 | 51.15331 | -0.16685 | 209 ft | 7 kts | 164° |
| 2026-04-15 20:57 | 51.15291 | -0.16670 | 215 ft | 5 kts | 167° |
| 2026-04-15 20:57 | 51.15259 | -0.16659 | 204 ft | 4 kts | 168° |
| 2026-04-15 20:57 | 51.15256 | -0.16658 | 204 ft | 0 kts | 168° |
| 2026-04-15 20:58 | 51.15245 | -0.16654 | 206 ft | 4 kts | 168° |
| 2026-04-15 20:58 | 51.15205 | -0.16641 | 209 ft | 8 kts | 168° |
| 2026-04-15 20:59 | 51.15154 | -0.16663 | 212 ft | 7 kts | 216° |
| 2026-04-15 20:59 | 51.15134 | -0.16723 | 207 ft | 5 kts | 256° |
| 2026-04-15 20:59 | 51.15126 | -0.16775 | 210 ft | 6 kts | 257° |
| 2026-04-15 20:59 | 51.15087 | -0.17055 | 212 ft | 60 kts | 257° |
| 2026-04-15 21:00 | 51.14946 | -0.18085 | 207 ft | 128 kts | 258° |
| 2026-04-15 21:00 | 51.14721 | -0.19739 | 422 ft | 164 kts | 258° |
| 2026-04-15 21:00 | 51.14502 | -0.21432 | 1522 ft | 148 kts | 255° |
| 2026-04-15 21:00 | 51.14283 | -0.22952 | 2511 ft | 139 kts | 255° |
| 2026-04-15 21:01 | 51.14068 | -0.24456 | 3115 ft | 142 kts | 256° |
| 2026-04-15 21:01 | 51.13865 | -0.26078 | 3522 ft | 157 kts | 256° |
| 2026-04-15 21:01 | 51.13601 | -0.27863 | 3851 ft | 176 kts | 254° |
| 2026-04-15 21:01 | 51.13306 | -0.29880 | 4019 ft | 196 kts | 255° |
| 2026-04-15 21:02 | 51.12996 | -0.32049 | 4296 ft | 211 kts | 255° |
| 2026-04-15 21:02 | 51.12660 | -0.34443 | 4508 ft | 232 kts | 256° |
| 2026-04-15 21:02 | 51.12310 | -0.36974 | 5182 ft | 236 kts | 256° |
| 2026-04-15 21:02 | 51.11955 | -0.39568 | 5819 ft | 243 kts | 256° |
| 2026-04-15 21:03 | 51.11600 | -0.42221 | 6562 ft | 245 kts | 255° |
| 2026-04-15 21:03 | 51.11027 | -0.44746 | 7366 ft | 243 kts | 242° |
| 2026-04-15 21:03 | 51.10213 | -0.47123 | 8109 ft | 247 kts | 242° |
| 2026-04-15 21:03 | 51.09423 | -0.49581 | 8798 ft | 251 kts | 244° |
| 2026-04-15 21:04 | 51.08655 | -0.52045 | 9604 ft | 253 kts | 244° |
| 2026-04-15 21:04 | 51.07870 | -0.54571 | 10359 ft | 256 kts | 244° |
| 2026-04-15 21:04 | 51.07076 | -0.57118 | 11115 ft | 258 kts | 244° |
| 2026-04-15 21:04 | 51.06274 | -0.59682 | 11873 ft | 261 kts | 244° |
| 2026-04-15 21:05 | 51.05475 | -0.62293 | 12638 ft | 264 kts | 248° |
| 2026-04-15 21:05 | 51.04968 | -0.65108 | 13443 ft | 267 kts | 256° |
| 2026-04-15 21:05 | 51.04608 | -0.68025 | 14204 ft | 270 kts | 257° |
| 2026-04-15 21:05 | 51.04250 | -0.70974 | 14960 ft | 273 kts | 257° |
| 2026-04-15 21:06 | 51.03875 | -0.73944 | 15728 ft | 275 kts | 257° |
| 2026-04-15 21:06 | 51.03492 | -0.76911 | 16340 ft | 285 kts | 256° |
| 2026-04-15 21:06 | 51.03065 | -0.80114 | 16492 ft | 307 kts | 256° |
| 2026-04-15 21:06 | 51.02601 | -0.83547 | 16684 ft | 328 kts | 256° |
| 2026-04-15 21:07 | 51.02389 | -0.87219 | 17133 ft | 342 kts | 272° |
| 2026-04-15 21:07 | 51.02973 | -0.90922 | 17853 ft | 353 kts | 289° |
| 2026-04-15 21:07 | 51.04256 | -0.94298 | 18562 ft | 365 kts | 305° |
| 2026-04-15 21:07 | 51.06221 | -0.96958 | 19227 ft | 377 kts | 319° |
| 2026-04-15 21:08 | 51.08418 | -0.99168 | 19908 ft | 380 kts | 323° |
| 2026-04-15 21:08 | 51.10717 | -1.01282 | 20569 ft | 382 kts | 323° |
| 2026-04-15 21:08 | 51.13034 | -1.03382 | 21200 ft | 384 kts | 323° |
| 2026-04-15 21:08 | 51.15353 | -1.05515 | 21829 ft | 386 kts | 323° |
| 2026-04-15 21:09 | 51.17673 | -1.07688 | 22454 ft | 388 kts | 322° |
| 2026-04-15 21:09 | 51.19996 | -1.09895 | 23066 ft | 389 kts | 322° |
| 2026-04-15 21:09 | 51.22326 | -1.12128 | 23668 ft | 391 kts | 322° |
| 2026-04-15 21:09 | 51.24662 | -1.14377 | 24146 ft | 393 kts | 322° |
| 2026-04-15 21:10 | 51.27010 | -1.16640 | 24635 ft | 395 kts | 322° |
| 2026-04-15 21:10 | 51.29335 | -1.18884 | 25111 ft | 397 kts | 322° |
| 2026-04-15 21:10 | 51.31703 | -1.21172 | 25572 ft | 398 kts | 321° |
| 2026-04-15 21:10 | 51.34122 | -1.23385 | 26023 ft | 404 kts | 326° |
| 2026-04-15 21:11 | 51.36750 | -1.25125 | 26477 ft | 412 kts | 331° |
| 2026-04-15 21:11 | 51.39446 | -1.26714 | 26916 ft | 414 kts | 332° |
| 2026-04-15 21:11 | 51.42154 | -1.28296 | 27347 ft | 415 kts | 332° |
| 2026-04-15 21:11 | 51.44874 | -1.29905 | 27758 ft | 417 kts | 331° |
| 2026-04-15 21:12 | 51.47597 | -1.31542 | 28165 ft | 419 kts | 331° |
| 2026-04-15 21:12 | 51.50329 | -1.33201 | 28573 ft | 421 kts | 330° |
| 2026-04-15 21:12 | 51.53034 | -1.34845 | 28972 ft | 422 kts | 330° |
| 2026-04-15 21:12 | 51.55781 | -1.36495 | 29485 ft | 421 kts | 330° |
| 2026-04-15 21:13 | 51.58390 | -1.38436 | 30081 ft | 405 kts | 319° |
| 2026-04-15 21:13 | 51.60562 | -1.41162 | 30597 ft | 390 kts | 309° |
| 2026-04-15 21:13 | 51.62365 | -1.44362 | 30900 ft | 384 kts | 300° |
| 2026-04-15 21:13 | 51.63718 | -1.48035 | 31135 ft | 381 kts | 292° |
| 2026-04-15 21:14 | 51.64929 | -1.51835 | 31469 ft | 382 kts | 292° |
| 2026-04-15 21:14 | 51.66147 | -1.55631 | 31836 ft | 382 kts | 292° |
| 2026-04-15 21:14 | 51.67384 | -1.59424 | 32162 ft | 383 kts | 292° |
| 2026-04-15 21:14 | 51.68617 | -1.63178 | 32455 ft | 385 kts | 293° |
| 2026-04-15 21:15 | 51.69725 | -1.67080 | 32760 ft | 382 kts | 286° |
| 2026-04-15 21:15 | 51.70510 | -1.71150 | 33106 ft | 379 kts | 280° |
| 2026-04-15 21:15 | 51.70937 | -1.75327 | 33405 ft | 378 kts | 274° |
| 2026-04-15 21:15 | 51.71220 | -1.79544 | 33702 ft | 379 kts | 274° |
| 2026-04-15 21:16 | 51.71508 | -1.83770 | 34018 ft | 379 kts | 275° |
| 2026-04-15 21:16 | 51.71967 | -1.87968 | 34262 ft | 382 kts | 280° |
| 2026-04-15 21:16 | 51.72587 | -1.92145 | 34501 ft | 383 kts | 280° |
| 2026-04-15 21:16 | 51.73226 | -1.96328 | 34752 ft | 384 kts | 280° |
| 2026-04-15 21:17 | 51.73857 | -2.00461 | 34981 ft | 385 kts | 280° |
| 2026-04-15 21:17 | 51.74493 | -2.04661 | 35191 ft | 387 kts | 280° |
| 2026-04-15 21:17 | 51.75126 | -2.08884 | 35393 ft | 388 kts | 280° |
| 2026-04-15 21:17 | 51.75757 | -2.13127 | 35634 ft | 388 kts | 280° |
| 2026-04-15 21:18 | 51.76383 | -2.17367 | 35889 ft | 389 kts | 279° |
| 2026-04-15 21:18 | 51.77009 | -2.21617 | 36017 ft | 391 kts | 279° |
| 2026-04-15 21:18 | 51.77639 | -2.25921 | 36014 ft | 395 kts | 279° |
| 2026-04-15 21:19 | 51.78891 | -2.34496 | 36004 ft | 393 kts | 279° |
| 2026-04-15 21:19 | 51.80129 | -2.43009 | 35992 ft | 387 kts | 279° |
| 2026-04-15 21:20 | 51.81352 | -2.51474 | 35986 ft | 387 kts | 279° |
| 2026-04-15 21:20 | 51.82547 | -2.59961 | 35960 ft | 387 kts | 279° |
| 2026-04-15 21:21 | 51.83685 | -2.68421 | 35950 ft | 388 kts | 278° |
| 2026-04-15 21:21 | 51.84824 | -2.76951 | 35935 ft | 388 kts | 278° |
| 2026-04-15 21:22 | 51.85964 | -2.85491 | 35927 ft | 388 kts | 278° |
| 2026-04-15 21:22 | 51.87100 | -2.94031 | 35926 ft | 389 kts | 278° |
| 2026-04-15 21:23 | 51.88222 | -3.02524 | 35930 ft | 389 kts | 278° |
| 2026-04-15 21:23 | 51.89348 | -3.11085 | 35944 ft | 389 kts | 278° |
| 2026-04-15 21:24 | 51.90466 | -3.19648 | 35957 ft | 389 kts | 278° |
| 2026-04-15 21:24 | 51.91580 | -3.28225 | 35956 ft | 389 kts | 278° |
| 2026-04-15 21:25 | 51.92679 | -3.36746 | 35970 ft | 389 kts | 278° |
| 2026-04-15 21:25 | 51.93781 | -3.45327 | 35979 ft | 389 kts | 278° |
| 2026-04-15 21:26 | 51.94876 | -3.53911 | 35978 ft | 389 kts | 278° |
| 2026-04-15 21:26 | 51.95968 | -3.62503 | 35976 ft | 389 kts | 278° |
| 2026-04-15 21:27 | 51.97039 | -3.70942 | 35955 ft | 379 kts | 278° |
| 2026-04-15 21:27 | 51.98090 | -3.79274 | 35969 ft | 377 kts | 278° |
| 2026-04-15 21:27 | 51.98613 | -3.83451 | 35739 ft | 380 kts | 278° |
| 2026-04-15 21:28 | 51.99134 | -3.87623 | 35476 ft | 374 kts | 278° |
| 2026-04-15 21:28 | 51.99648 | -3.91742 | 35070 ft | 371 kts | 278° |
| 2026-04-15 21:28 | 52.00156 | -3.95822 | 34712 ft | 367 kts | 278° |
| 2026-04-15 21:28 | 52.00658 | -3.99871 | 34333 ft | 364 kts | 278° |
| 2026-04-15 21:29 | 52.01154 | -4.03891 | 33957 ft | 361 kts | 278° |
| 2026-04-15 21:29 | 52.01638 | -4.07819 | 33513 ft | 358 kts | 277° |
| 2026-04-15 21:29 | 52.02123 | -4.11767 | 33100 ft | 355 kts | 277° |
| 2026-04-15 21:29 | 52.02601 | -4.15669 | 32727 ft | 350 kts | 277° |
| 2026-04-15 21:30 | 52.03072 | -4.19521 | 32353 ft | 346 kts | 277° |
| 2026-04-15 21:30 | 52.03536 | -4.23334 | 31969 ft | 342 kts | 277° |
| 2026-04-15 21:30 | 52.03993 | -4.27096 | 31621 ft | 337 kts | 277° |
| 2026-04-15 21:30 | 52.04443 | -4.30817 | 31239 ft | 334 kts | 277° |
| 2026-04-15 21:31 | 52.05323 | -4.38116 | 30535 ft | 324 kts | 277° |
| 2026-04-15 21:31 | 52.05744 | -4.41615 | 30194 ft | 316 kts | 277° |
| 2026-04-15 21:32 | 52.06564 | -4.48463 | 29477 ft | 301 kts | 277° |
| 2026-04-15 21:32 | 52.06958 | -4.51772 | 29126 ft | 296 kts | 277° |
| 2026-04-15 21:32 | 52.07346 | -4.55038 | 28786 ft | 292 kts | 277° |
| 2026-04-15 21:32 | 52.07726 | -4.58253 | 28448 ft | 288 kts | 277° |
| 2026-04-15 21:33 | 52.08101 | -4.61425 | 28104 ft | 284 kts | 277° |
| 2026-04-15 21:33 | 52.08470 | -4.64554 | 27770 ft | 281 kts | 277° |
| 2026-04-15 21:33 | 52.08829 | -4.67615 | 27444 ft | 277 kts | 276° |
| 2026-04-15 21:33 | 52.09189 | -4.70679 | 27108 ft | 275 kts | 276° |
| 2026-04-15 21:34 | 52.09543 | -4.73709 | 26785 ft | 271 kts | 276° |
| 2026-04-15 21:34 | 52.09893 | -4.76709 | 26475 ft | 269 kts | 276° |
| 2026-04-15 21:34 | 52.10240 | -4.79679 | 26154 ft | 266 kts | 276° |
| 2026-04-15 21:34 | 52.10582 | -4.82619 | 25833 ft | 263 kts | 276° |
| 2026-04-15 21:35 | 52.10921 | -4.85535 | 25519 ft | 261 kts | 276° |
| 2026-04-15 21:35 | 52.11255 | -4.88422 | 25210 ft | 259 kts | 276° |
| 2026-04-15 21:35 | 52.11587 | -4.91302 | 24904 ft | 259 kts | 276° |
| 2026-04-15 21:35 | 52.11914 | -4.94140 | 24608 ft | 260 kts | 276° |
| 2026-04-15 21:36 | 52.12247 | -4.97065 | 24334 ft | 268 kts | 276° |
| 2026-04-15 21:36 | 52.12591 | -5.00105 | 24012 ft | 277 kts | 276° |
| 2026-04-15 21:36 | 52.12942 | -5.03181 | 23669 ft | 276 kts | 276° |
| 2026-04-15 21:36 | 52.13290 | -5.06245 | 23290 ft | 274 kts | 275° |
| 2026-04-15 21:37 | 52.13634 | -5.09288 | 22905 ft | 272 kts | 275° |
| 2026-04-15 21:37 | 52.14027 | -5.12291 | 22550 ft | 273 kts | 283° |
| 2026-04-15 21:37 | 52.14949 | -5.15043 | 22239 ft | 281 kts | 296° |
| 2026-04-15 21:37 | 52.16277 | -5.17429 | 21908 ft | 292 kts | 310° |
| 2026-04-15 21:38 | 52.18005 | -5.19195 | 21602 ft | 300 kts | 320° |
| 2026-04-15 21:38 | 52.19869 | -5.20743 | 21278 ft | 301 kts | 321° |
| 2026-04-15 21:38 | 52.21743 | -5.22238 | 20952 ft | 299 kts | 321° |
| 2026-04-15 21:38 | 52.23603 | -5.23721 | 20646 ft | 297 kts | 321° |
| 2026-04-15 21:39 | 52.25448 | -5.25207 | 20333 ft | 295 kts | 321° |
| 2026-04-15 21:39 | 52.27276 | -5.26694 | 20038 ft | 293 kts | 321° |
| 2026-04-15 21:39 | 52.29091 | -5.28180 | 19723 ft | 291 kts | 321° |
| 2026-04-15 21:39 | 52.30894 | -5.29664 | 19425 ft | 289 kts | 321° |
| 2026-04-15 21:40 | 52.32663 | -5.31124 | 19130 ft | 288 kts | 321° |
| 2026-04-15 21:40 | 52.34457 | -5.32608 | 18832 ft | 290 kts | 321° |
| 2026-04-15 21:40 | 52.36264 | -5.34106 | 18528 ft | 293 kts | 321° |
| 2026-04-15 21:40 | 52.38101 | -5.35633 | 18236 ft | 301 kts | 321° |
| 2026-04-15 21:41 | 52.39987 | -5.37203 | 17868 ft | 306 kts | 322° |
| 2026-04-15 21:41 | 52.41886 | -5.38773 | 17513 ft | 305 kts | 322° |
| 2026-04-15 21:41 | 52.43775 | -5.40332 | 17174 ft | 303 kts | 322° |
| 2026-04-15 21:41 | 52.45650 | -5.41883 | 16858 ft | 301 kts | 322° |
| 2026-04-15 21:42 | 52.47487 | -5.43406 | 16549 ft | 299 kts | 322° |
| 2026-04-15 21:42 | 52.49333 | -5.44939 | 16221 ft | 297 kts | 321° |
| 2026-04-15 21:42 | 52.51169 | -5.46467 | 15919 ft | 295 kts | 321° |
| 2026-04-15 21:42 | 52.52992 | -5.47985 | 15609 ft | 293 kts | 321° |
| 2026-04-15 21:43 | 52.54804 | -5.49495 | 15300 ft | 292 kts | 321° |
| 2026-04-15 21:43 | 52.56689 | -5.50826 | 14958 ft | 300 kts | 329° |
| 2026-04-15 21:43 | 52.58690 | -5.51860 | 14642 ft | 302 kts | 332° |
| 2026-04-15 21:43 | 52.60705 | -5.52822 | 14330 ft | 301 kts | 332° |
| 2026-04-15 21:44 | 52.62714 | -5.53789 | 14023 ft | 300 kts | 332° |
| 2026-04-15 21:44 | 52.64710 | -5.54776 | 13720 ft | 299 kts | 332° |
| 2026-04-15 21:44 | 52.66695 | -5.55779 | 13386 ft | 298 kts | 331° |
| 2026-04-15 21:44 | 52.68645 | -5.56776 | 13057 ft | 297 kts | 331° |
| 2026-04-15 21:45 | 52.70610 | -5.57785 | 12748 ft | 295 kts | 332° |
| 2026-04-15 21:45 | 52.72564 | -5.58791 | 12455 ft | 293 kts | 332° |
| 2026-04-15 21:45 | 52.74502 | -5.59797 | 12160 ft | 291 kts | 332° |
| 2026-04-15 21:45 | 52.76429 | -5.60800 | 11861 ft | 290 kts | 332° |
| 2026-04-15 21:46 | 52.78347 | -5.61799 | 11570 ft | 288 kts | 332° |
| 2026-04-15 21:46 | 52.80254 | -5.62794 | 11278 ft | 287 kts | 332° |
| 2026-04-15 21:46 | 52.82154 | -5.63786 | 10993 ft | 286 kts | 332° |
| 2026-04-15 21:46 | 52.84020 | -5.64761 | 10704 ft | 285 kts | 332° |
| 2026-04-15 21:47 | 52.85906 | -5.65749 | 10412 ft | 284 kts | 332° |
| 2026-04-15 21:47 | 52.87788 | -5.66734 | 10118 ft | 283 kts | 333° |
| 2026-04-15 21:47 | 52.89660 | -5.67714 | 9899 ft | 280 kts | 333° |
| 2026-04-15 21:47 | 52.91500 | -5.68675 | 9687 ft | 277 kts | 333° |
| 2026-04-15 21:48 | 52.93334 | -5.69638 | 9401 ft | 275 kts | 333° |
| 2026-04-15 21:48 | 52.95129 | -5.70576 | 9292 ft | 268 kts | 333° |
| 2026-04-15 21:48 | 52.96896 | -5.71505 | 9029 ft | 266 kts | 332° |
| 2026-04-15 21:48 | 52.98668 | -5.72442 | 8774 ft | 270 kts | 333° |
| 2026-04-15 21:49 | 53.00452 | -5.73389 | 8511 ft | 276 kts | 333° |
| 2026-04-15 21:49 | 53.02299 | -5.74367 | 8226 ft | 281 kts | 333° |
| 2026-04-15 21:49 | 53.04158 | -5.75345 | 7931 ft | 280 kts | 333° |
| 2026-04-15 21:49 | 53.06007 | -5.76317 | 7644 ft | 278 kts | 333° |
| 2026-04-15 21:50 | 53.07795 | -5.77259 | 7396 ft | 276 kts | 333° |
| 2026-04-15 21:50 | 53.09596 | -5.78206 | 7279 ft | 268 kts | 333° |
| 2026-04-15 21:50 | 53.11348 | -5.79125 | 7149 ft | 262 kts | 334° |
| 2026-04-15 21:50 | 53.13202 | -5.79351 | 7030 ft | 276 kts | 5° |
| 2026-04-15 21:51 | 53.14905 | -5.77981 | 7014 ft | 281 kts | 41° |
| 2026-04-15 21:51 | 53.16037 | -5.75368 | 7048 ft | 278 kts | 62° |
| 2026-04-15 21:51 | 53.16976 | -5.72517 | 7040 ft | 283 kts | 62° |
| 2026-04-15 21:51 | 53.17933 | -5.69627 | 7041 ft | 287 kts | 62° |
| 2026-04-15 21:52 | 53.18907 | -5.66726 | 7032 ft | 286 kts | 62° |
| 2026-04-15 21:52 | 53.19976 | -5.63939 | 7011 ft | 285 kts | 45° |
| 2026-04-15 21:52 | 53.21500 | -5.61891 | 7042 ft | 280 kts | 32° |
| 2026-04-15 21:52 | 53.23062 | -5.60018 | 7032 ft | 280 kts | 32° |
| 2026-04-15 21:53 | 53.24636 | -5.58105 | 7032 ft | 280 kts | 33° |
| 2026-04-15 21:53 | 53.26206 | -5.56176 | 7036 ft | 280 kts | 33° |
| 2026-04-15 21:53 | 53.27773 | -5.54243 | 7039 ft | 280 kts | 33° |
| 2026-04-15 21:53 | 53.29424 | -5.52570 | 7016 ft | 274 kts | 12° |
| 2026-04-15 21:54 | 53.31253 | -5.51854 | 7052 ft | 269 kts | 5° |
| 2026-04-15 21:54 | 53.33094 | -5.51207 | 7037 ft | 271 kts | 5° |
| 2026-04-15 21:54 | 53.34941 | -5.50535 | 7038 ft | 272 kts | 6° |
| 2026-04-15 21:54 | 53.36766 | -5.49860 | 7040 ft | 273 kts | 6° |
| 2026-04-15 21:55 | 53.38617 | -5.49171 | 7039 ft | 273 kts | 6° |
| 2026-04-15 21:55 | 53.40473 | -5.48730 | 7019 ft | 263 kts | 346° |
| 2026-04-15 21:55 | 53.42229 | -5.49277 | 7043 ft | 256 kts | 339° |
| 2026-04-15 21:55 | 53.43972 | -5.49897 | 7037 ft | 256 kts | 339° |
| 2026-04-15 21:56 | 53.45718 | -5.50501 | 7035 ft | 257 kts | 339° |
| 2026-04-15 21:56 | 53.47470 | -5.51100 | 7029 ft | 257 kts | 340° |
| 2026-04-15 21:56 | 53.49222 | -5.51695 | 7029 ft | 257 kts | 340° |
| 2026-04-15 21:56 | 53.50964 | -5.52321 | 7025 ft | 253 kts | 333° |
| 2026-04-15 21:57 | 53.52419 | -5.53662 | 7041 ft | 237 kts | 313° |
| 2026-04-15 21:57 | 53.53753 | -5.55301 | 7028 ft | 238 kts | 314° |
| 2026-04-15 21:57 | 53.55100 | -5.56928 | 7026 ft | 238 kts | 314° |
| 2026-04-15 21:57 | 53.56451 | -5.58551 | 7026 ft | 239 kts | 315° |
| 2026-04-15 21:58 | 53.57763 | -5.60234 | 7016 ft | 232 kts | 303° |
| 2026-04-15 21:58 | 53.58476 | -5.62479 | 7026 ft | 211 kts | 274° |
| 2026-04-15 21:58 | 53.58452 | -5.64882 | 6900 ft | 207 kts | 252° |
| 2026-04-15 21:58 | 53.57854 | -5.67067 | 6702 ft | 208 kts | 233° |
| 2026-04-15 21:59 | 53.56835 | -5.68774 | 6502 ft | 206 kts | 222° |
| 2026-04-15 21:59 | 53.55739 | -5.70270 | 6350 ft | 200 kts | 221° |
| 2026-04-15 21:59 | 53.54682 | -5.71688 | 6214 ft | 194 kts | 221° |
| 2026-04-15 21:59 | 53.53648 | -5.73085 | 6075 ft | 187 kts | 221° |
| 2026-04-15 22:00 | 53.52644 | -5.74450 | 5931 ft | 184 kts | 222° |
| 2026-04-15 22:00 | 53.51651 | -5.75803 | 5797 ft | 184 kts | 222° |
| 2026-04-15 22:00 | 53.50661 | -5.77155 | 5652 ft | 183 kts | 222° |
| 2026-04-15 22:00 | 53.49670 | -5.78508 | 5503 ft | 184 kts | 222° |
| 2026-04-15 22:01 | 53.48675 | -5.79866 | 5345 ft | 185 kts | 222° |
| 2026-04-15 22:01 | 53.47708 | -5.81292 | 5156 ft | 185 kts | 230° |
| 2026-04-15 22:01 | 53.46917 | -5.82968 | 4998 ft | 186 kts | 234° |
| 2026-04-15 22:01 | 53.46144 | -5.84699 | 4782 ft | 184 kts | 234° |
| 2026-04-15 22:02 | 53.45379 | -5.86399 | 4575 ft | 181 kts | 234° |
| 2026-04-15 22:02 | 53.44622 | -5.88069 | 4371 ft | 177 kts | 233° |
| 2026-04-15 22:02 | 53.43893 | -5.89669 | 4176 ft | 169 kts | 233° |
| 2026-04-15 22:02 | 53.43185 | -5.91218 | 3967 ft | 166 kts | 233° |
| 2026-04-15 22:03 | 53.42494 | -5.92767 | 3839 ft | 165 kts | 239° |
| 2026-04-15 22:03 | 53.42270 | -5.94600 | 3752 ft | 161 kts | 264° |
| 2026-04-15 22:03 | 53.42255 | -5.96425 | 3547 ft | 156 kts | 261° |
| 2026-04-15 22:03 | 53.42219 | -5.98210 | 3343 ft | 151 kts | 263° |
| 2026-04-15 22:04 | 53.42244 | -5.99951 | 3145 ft | 147 kts | 265° |
| 2026-04-15 22:04 | 53.42310 | -6.01631 | 2959 ft | 141 kts | 266° |
| 2026-04-15 22:04 | 53.42387 | -6.03249 | 2765 ft | 139 kts | 266° |
| 2026-04-15 22:04 | 53.42469 | -6.04879 | 2578 ft | 141 kts | 266° |
| 2026-04-15 22:05 | 53.42555 | -6.06530 | 2385 ft | 143 kts | 266° |
| 2026-04-15 22:05 | 53.42642 | -6.08173 | 2187 ft | 143 kts | 265° |
| 2026-04-15 22:05 | 53.42730 | -6.09788 | 1986 ft | 133 kts | 264° |
| 2026-04-15 22:05 | 53.42809 | -6.11279 | 1820 ft | 128 kts | 264° |
| 2026-04-15 22:06 | 53.42887 | -6.12748 | 1645 ft | 125 kts | 263° |
| 2026-04-15 22:06 | 53.42964 | -6.14209 | 1475 ft | 127 kts | 263° |
| 2026-04-15 22:06 | 53.43043 | -6.15705 | 1304 ft | 130 kts | 264° |
| 2026-04-15 22:06 | 53.43124 | -6.17219 | 1108 ft | 131 kts | 265° |
| 2026-04-15 22:07 | 53.43210 | -6.18788 | 957 ft | 137 kts | 268° |
| 2026-04-15 22:07 | 53.43300 | -6.20402 | 768 ft | 138 kts | 268° |
| 2026-04-15 22:07 | 53.43383 | -6.21993 | 568 ft | 136 kts | 269° |
| 2026-04-15 22:07 | 53.43469 | -6.23551 | 371 ft | 136 kts | 269° |
| 2026-04-15 22:08 | 53.43555 | -6.25109 | 234 ft | 131 kts | 270° |
| 2026-04-15 22:08 | 53.43629 | -6.26477 | 225 ft | 92 kts | 275° |
| 2026-04-15 22:08 | 53.43670 | -6.27196 | 223 ft | 39 kts | 275° |
| 2026-04-15 22:08 | 53.43692 | -6.27615 | 224 ft | 34 kts | 275° |
| 2026-04-15 22:09 | 53.43709 | -6.27951 | 224 ft | 21 kts | 274° |
| 2026-04-15 22:09 | 53.43687 | -6.28084 | 224 ft | 10 kts | 212° |
| 2026-04-15 22:09 | 53.43617 | -6.28103 | 224 ft | 9 kts | 184° |
| 2026-04-15 22:09 | 53.43560 | -6.28085 | 225 ft | 9 kts | 137° |
| 2026-04-15 22:10 | 53.43545 | -6.28005 | 224 ft | 2 kts | 96° |
| 2026-04-15 22:10 | 53.43545 | -6.28004 | 224 ft | 0 kts | 96° |
| 2026-04-15 22:11 | 53.43544 | -6.27996 | 224 ft | 2 kts | 95° |
| 2026-04-15 22:12 | 53.43540 | -6.27924 | 224 ft | 10 kts | 95° |
| 2026-04-15 22:12 | 53.43531 | -6.27765 | 226 ft | 17 kts | 96° |
| 2026-04-15 22:12 | 53.43517 | -6.27531 | 225 ft | 22 kts | 96° |
| 2026-04-15 22:12 | 53.43502 | -6.27279 | 226 ft | 21 kts | 95° |
| 2026-04-15 22:13 | 53.43490 | -6.27032 | 224 ft | 21 kts | 95° |
| 2026-04-15 22:13 | 53.43477 | -6.26794 | 224 ft | 20 kts | 95° |
| 2026-04-15 22:13 | 53.43466 | -6.26565 | 224 ft | 18 kts | 95° |
| 2026-04-15 22:13 | 53.43446 | -6.26395 | 224 ft | 13 kts | 112° |
| 2026-04-15 22:14 | 53.43385 | -6.26290 | 224 ft | 13 kts | 142° |
| 2026-04-15 22:14 | 53.43319 | -6.26199 | 224 ft | 12 kts | 140° |
| 2026-04-15 22:14 | 53.43309 | -6.26071 | 224 ft | 12 kts | 68° |
| 2026-04-15 22:14 | 53.43341 | -6.25944 | 223 ft | 12 kts | 66° |
| 2026-04-15 22:15 | 53.43374 | -6.25821 | 223 ft | 11 kts | 66° |
| 2026-04-15 22:15 | 53.43397 | -6.25701 | 224 ft | 10 kts | 101° |
| 2026-04-15 22:15 | 53.43339 | -6.25637 | 226 ft | 11 kts | 159° |
| 2026-04-15 22:15 | 53.43262 | -6.25577 | 225 ft | 14 kts | 154° |
| 2026-04-15 22:16 | 53.43172 | -6.25511 | 225 ft | 14 kts | 156° |
| 2026-04-15 22:16 | 53.43086 | -6.25451 | 224 ft | 13 kts | 158° |
| 2026-04-15 22:16 | 53.43005 | -6.25394 | 225 ft | 13 kts | 155° |
| 2026-04-15 22:16 | 53.42955 | -6.25354 | 224 ft | 5 kts | 141° |
| 2026-04-15 22:17 | 53.42949 | -6.25303 | 224 ft | 5 kts | 66° |
| 2026-04-15 22:17 | 53.42961 | -6.25249 | 225 ft | 6 kts | 77° |
| 2026-04-15 22:17 | 53.42967 | -6.25168 | 224 ft | 5 kts | 69° |
| 2026-04-15 22:17 | 53.42991 | -6.25147 | 224 ft | 4 kts | 17° |
| 2026-04-15 22:18 | 53.43007 | -6.25141 | 224 ft | 0 kts | 12° |